sensor_id;sensor_type;location;lat;lon;timestamp;pressure;altitude;pressure_sealevel;temperature;humidity
59417;BME280;45222;52.458;20.914;2023-11-19T00:03:08;101414.83;;;-0.54;88.43
59417;BME280;45222;52.458;20.914;2023-11-19T00:06:55;101411.11;;;-0.45;88.61
59417;BME280;45222;52.458;20.914;2023-11-19T00:10:46;101405.56;;;-0.42;88.49
59417;BME280;45222;52.458;20.914;2023-11-19T00:14:31;101405.22;;;-0.41;88.11
59417;BME280;45222;52.458;20.914;2023-11-19T00:18:16;101408.13;;;-0.46;87.71
59417;BME280;45222;52.458;20.914;2023-11-19T00:22:02;101407.81;;;-0.43;87.95
59417;BME280;45222;52.458;20.914;2023-11-19T00:25:48;101397.21;;;-0.39;87.86
59417;BME280;45222;52.458;20.914;2023-11-19T00:29:34;101387.11;;;-0.35;88.25
59417;BME280;45222;52.458;20.914;2023-11-19T00:33:20;101383.46;;;-0.20;88.55
59417;BME280;45222;52.458;20.914;2023-11-19T00:37:05;101380.23;;;-0.13;87.95
59417;BME280;45222;52.458;20.914;2023-11-19T00:40:51;101367.84;;;-0.10;87.82
59417;BME280;45222;52.458;20.914;2023-11-19T00:44:36;101355.06;;;-0.11;87.39
59417;BME280;45222;52.458;20.914;2023-11-19T00:48:22;101349.48;;;-0.10;87.37
59417;BME280;45222;52.458;20.914;2023-11-19T00:52:07;101353.16;;;-0.09;87.36
59417;BME280;45222;52.458;20.914;2023-11-19T00:55:52;101354.98;;;-0.03;87.60
59417;BME280;45222;52.458;20.914;2023-11-19T00:59:37;101351.73;;;0.04;87.72
59417;BME280;45222;52.458;20.914;2023-11-19T01:03:23;101336.20;;;0.06;87.35
59417;BME280;45222;52.458;20.914;2023-11-19T01:07:08;101326.41;;;0.07;87.10
59417;BME280;45222;52.458;20.914;2023-11-19T01:10:56;101315.04;;;0.08;87.02
59417;BME280;45222;52.458;20.914;2023-11-19T01:14:42;101313.84;;;0.09;86.87
59417;BME280;45222;52.458;20.914;2023-11-19T01:18:27;101314.52;;;0.09;87.01
59417;BME280;45222;52.458;20.914;2023-11-19T01:22:12;101307.01;;;0.08;87.00
59417;BME280;45222;52.458;20.914;2023-11-19T01:25:57;101297.02;;;0.05;86.76
59417;BME280;45222;52.458;20.914;2023-11-19T01:29:42;101293.45;;;0.01;86.54
59417;BME280;45222;52.458;20.914;2023-11-19T01:33:27;101292.36;;;-0.04;86.43
59417;BME280;45222;52.458;20.914;2023-11-19T01:37:12;101296.73;;;-0.05;86.69
59417;BME280;45222;52.458;20.914;2023-11-19T01:40:58;101295.34;;;-0.04;87.03
59417;BME280;45222;52.458;20.914;2023-11-19T01:44:56;101290.08;;;-0.05;87.14
59417;BME280;45222;52.458;20.914;2023-11-19T01:48:44;101284.71;;;0.00;87.30
59417;BME280;45222;52.458;20.914;2023-11-19T01:52:30;101276.19;;;0.04;87.12
59417;BME280;45222;52.458;20.914;2023-11-19T01:56:16;101265.84;;;0.01;86.71
59417;BME280;45222;52.458;20.914;2023-11-19T02:00:01;101252.35;;;-0.01;86.84
59417;BME280;45222;52.458;20.914;2023-11-19T02:03:47;101248.85;;;-0.02;87.00
59417;BME280;45222;52.458;20.914;2023-11-19T02:07:33;101242.78;;;0.04;87.28
59417;BME280;45222;52.458;20.914;2023-11-19T02:11:18;101243.02;;;0.12;87.39
59417;BME280;45222;52.458;20.914;2023-11-19T02:15:03;101244.29;;;0.17;87.01
59417;BME280;45222;52.458;20.914;2023-11-19T02:18:48;101245.86;;;0.17;86.62
59417;BME280;45222;52.458;20.914;2023-11-19T02:22:34;101241.10;;;0.12;86.34
59417;BME280;45222;52.458;20.914;2023-11-19T02:26:22;101230.39;;;0.08;86.64
59417;BME280;45222;52.458;20.914;2023-11-19T02:30:12;101227.63;;;0.11;86.91
59417;BME280;45222;52.458;20.914;2023-11-19T02:34:32;101228.55;;;0.18;87.19
59417;BME280;45222;52.458;20.914;2023-11-19T02:38:17;101225.63;;;0.24;87.09
59417;BME280;45222;52.458;20.914;2023-11-19T02:42:03;101220.20;;;0.24;86.79
59417;BME280;45222;52.458;20.914;2023-11-19T02:45:48;101213.88;;;0.20;86.60
59417;BME280;45222;52.458;20.914;2023-11-19T02:49:33;101213.63;;;0.11;86.42
59417;BME280;45222;52.458;20.914;2023-11-19T02:53:18;101206.78;;;0.08;86.46
59417;BME280;45222;52.458;20.914;2023-11-19T02:57:06;101200.79;;;0.02;86.34
59417;BME280;45222;52.458;20.914;2023-11-19T03:00:53;101190.98;;;-0.00;86.87
59417;BME280;45222;52.458;20.914;2023-11-19T03:04:41;101180.84;;;0.01;87.12
59417;BME280;45222;52.458;20.914;2023-11-19T03:08:30;101174.88;;;-0.02;86.91
59417;BME280;45222;52.458;20.914;2023-11-19T03:12:15;101163.33;;;-0.01;86.88
59417;BME280;45222;52.458;20.914;2023-11-19T03:16:00;101164.56;;;-0.02;86.69
59417;BME280;45222;52.458;20.914;2023-11-19T03:19:45;101165.79;;;-0.03;86.53
59417;BME280;45222;52.458;20.914;2023-11-19T03:23:30;101153.38;;;-0.03;86.79
59417;BME280;45222;52.458;20.914;2023-11-19T03:27:15;101139.23;;;0.00;87.06
59417;BME280;45222;52.458;20.914;2023-11-19T03:31:00;101132.23;;;0.02;87.21
59417;BME280;45222;52.458;20.914;2023-11-19T03:34:46;101127.52;;;0.02;86.96
59417;BME280;45222;52.458;20.914;2023-11-19T03:38:31;101125.39;;;-0.03;86.72
59417;BME280;45222;52.458;20.914;2023-11-19T03:42:16;101127.07;;;-0.12;86.74
59417;BME280;45222;52.458;20.914;2023-11-19T03:46:01;101126.83;;;-0.19;86.85
59417;BME280;45222;52.458;20.914;2023-11-19T03:49:48;101127.14;;;-0.24;86.75
59417;BME280;45222;52.458;20.914;2023-11-19T03:53:34;101121.87;;;-0.28;86.96
59417;BME280;45222;52.458;20.914;2023-11-19T03:57:19;101121.91;;;-0.22;87.09
59417;BME280;45222;52.458;20.914;2023-11-19T04:01:05;101109.54;;;-0.16;87.51
59417;BME280;45222;52.458;20.914;2023-11-19T04:04:50;101093.33;;;-0.12;87.50
59417;BME280;45222;52.458;20.914;2023-11-19T04:08:36;101084.23;;;-0.13;87.55
59417;BME280;45222;52.458;20.914;2023-11-19T04:12:21;101079.31;;;-0.16;87.38
59417;BME280;45222;52.458;20.914;2023-11-19T04:16:08;101069.70;;;-0.17;87.28
59417;BME280;45222;52.458;20.914;2023-11-19T04:19:53;101056.71;;;-0.21;87.18
59417;BME280;45222;52.458;20.914;2023-11-19T04:23:38;101049.35;;;-0.25;87.18
59417;BME280;45222;52.458;20.914;2023-11-19T04:27:23;101042.89;;;-0.25;87.58
59417;BME280;45222;52.458;20.914;2023-11-19T04:31:08;101036.92;;;-0.26;87.48
59417;BME280;45222;52.458;20.914;2023-11-19T04:34:53;101030.80;;;-0.28;87.59
59417;BME280;45222;52.458;20.914;2023-11-19T04:38:39;101021.86;;;-0.33;87.43
59417;BME280;45222;52.458;20.914;2023-11-19T04:42:24;101022.70;;;-0.37;87.55
59417;BME280;45222;52.458;20.914;2023-11-19T04:46:10;101018.16;;;-0.38;87.72
59417;BME280;45222;52.458;20.914;2023-11-19T04:49:55;101013.23;;;-0.40;87.90
59417;BME280;45222;52.458;20.914;2023-11-19T04:53:40;101007.48;;;-0.39;88.34
59417;BME280;45222;52.458;20.914;2023-11-19T04:57:25;101010.63;;;-0.38;88.07
59417;BME280;45222;52.458;20.914;2023-11-19T05:01:14;101005.89;;;-0.41;88.20
59417;BME280;45222;52.458;20.914;2023-11-19T05:05:01;101001.52;;;-0.43;88.02
59417;BME280;45222;52.458;20.914;2023-11-19T05:08:48;101000.80;;;-0.45;88.06
59417;BME280;45222;52.458;20.914;2023-11-19T05:12:33;101001.49;;;-0.47;88.38
59417;BME280;45222;52.458;20.914;2023-11-19T05:16:18;100989.32;;;-0.39;88.74
59417;BME280;45222;52.458;20.914;2023-11-19T05:20:07;100985.14;;;-0.35;88.74
59417;BME280;45222;52.458;20.914;2023-11-19T05:23:57;100976.23;;;-0.33;88.65
59417;BME280;45222;52.458;20.914;2023-11-19T05:27:42;100969.59;;;-0.35;88.77
59417;BME280;45222;52.458;20.914;2023-11-19T05:31:28;100970.14;;;-0.32;88.71
59417;BME280;45222;52.458;20.914;2023-11-19T05:35:13;100966.82;;;-0.31;88.57
59417;BME280;45222;52.458;20.914;2023-11-19T05:38:58;100958.96;;;-0.29;88.49
59417;BME280;45222;52.458;20.914;2023-11-19T05:42:44;100955.85;;;-0.24;88.59
59417;BME280;45222;52.458;20.914;2023-11-19T05:46:29;100952.02;;;-0.19;88.62
59417;BME280;45222;52.458;20.914;2023-11-19T05:50:15;100944.70;;;-0.17;88.38
59417;BME280;45222;52.458;20.914;2023-11-19T05:54:00;100942.05;;;-0.21;88.32
59417;BME280;45222;52.458;20.914;2023-11-19T05:57:46;100939.75;;;-0.25;88.43
59417;BME280;45222;52.458;20.914;2023-11-19T06:01:31;100939.42;;;-0.23;88.45
59417;BME280;45222;52.458;20.914;2023-11-19T06:05:16;100940.14;;;-0.20;88.73
59417;BME280;45222;52.458;20.914;2023-11-19T06:09:02;100942.77;;;-0.14;88.77
59417;BME280;45222;52.458;20.914;2023-11-19T06:12:50;100937.54;;;-0.13;89.05
59417;BME280;45222;52.458;20.914;2023-11-19T06:16:40;100934.40;;;-0.12;88.96
59417;BME280;45222;52.458;20.914;2023-11-19T06:20:25;100935.27;;;-0.13;88.72
59417;BME280;45222;52.458;20.914;2023-11-19T06:24:12;100927.91;;;-0.16;88.79
59417;BME280;45222;52.458;20.914;2023-11-19T06:27:57;100923.88;;;-0.20;88.54
59417;BME280;45222;52.458;20.914;2023-11-19T06:31:43;100922.46;;;-0.23;88.52
59417;BME280;45222;52.458;20.914;2023-11-19T06:35:28;100917.04;;;-0.24;88.46
59417;BME280;45222;52.458;20.914;2023-11-19T06:39:20;100909.71;;;-0.20;88.75
59417;BME280;45222;52.458;20.914;2023-11-19T06:43:05;100908.52;;;-0.15;89.00
59417;BME280;45222;52.458;20.914;2023-11-19T06:46:53;100903.80;;;-0.10;89.22
59417;BME280;45222;52.458;20.914;2023-11-19T06:50:38;100891.05;;;-0.10;89.08
59417;BME280;45222;52.458;20.914;2023-11-19T06:54:24;100882.66;;;-0.11;88.90
59417;BME280;45222;52.458;20.914;2023-11-19T06:58:09;100875.30;;;-0.13;88.86
59417;BME280;45222;52.458;20.914;2023-11-19T07:01:54;100868.66;;;-0.14;89.04
59417;BME280;45222;52.458;20.914;2023-11-19T07:05:45;100862.02;;;-0.13;89.35
59417;BME280;45222;52.458;20.914;2023-11-19T07:09:32;100856.61;;;-0.10;89.68
59417;BME280;45222;52.458;20.914;2023-11-19T07:13:18;100852.08;;;-0.07;89.48
59417;BME280;45222;52.458;20.914;2023-11-19T07:17:04;100851.20;;;-0.05;89.36
59417;BME280;45222;52.458;20.914;2023-11-19T07:20:49;100845.63;;;0.00;89.35
59417;BME280;45222;52.458;20.914;2023-11-19T07:24:34;100843.36;;;0.07;89.52
59417;BME280;45222;52.458;20.914;2023-11-19T07:28:20;100843.73;;;0.13;89.60
59417;BME280;45222;52.458;20.914;2023-11-19T07:32:06;100839.89;;;0.24;89.60
59417;BME280;45222;52.458;20.914;2023-11-19T07:35:52;100838.16;;;0.26;89.35
59417;BME280;45222;52.458;20.914;2023-11-19T07:39:37;100829.23;;;0.28;89.10
59417;BME280;45222;52.458;20.914;2023-11-19T07:43:25;100823.28;;;0.31;89.24
59417;BME280;45222;52.458;20.914;2023-11-19T07:47:10;100804.75;;;0.36;89.18
59417;BME280;45222;52.458;20.914;2023-11-19T07:50:57;100802.13;;;0.45;88.96
59417;BME280;45222;52.458;20.914;2023-11-19T07:54:42;100797.05;;;0.54;89.08
59417;BME280;45222;52.458;20.914;2023-11-19T07:58:27;100793.20;;;0.64;89.04
59417;BME280;45222;52.458;20.914;2023-11-19T08:02:13;100793.88;;;0.74;88.76
59417;BME280;45222;52.458;20.914;2023-11-19T08:05:59;100788.44;;;0.78;88.26
59417;BME280;45222;52.458;20.914;2023-11-19T08:09:44;100789.85;;;0.79;88.16
59417;BME280;45222;52.458;20.914;2023-11-19T08:13:29;100787.20;;;0.86;88.33
59417;BME280;45222;52.458;20.914;2023-11-19T08:17:15;100786.15;;;0.92;88.12
59417;BME280;45222;52.458;20.914;2023-11-19T08:21:01;100782.99;;;0.90;87.95
59417;BME280;45222;52.458;20.914;2023-11-19T08:24:49;100774.42;;;0.91;87.82
59417;BME280;45222;52.458;20.914;2023-11-19T08:28:34;100770.39;;;0.92;87.78
59417;BME280;45222;52.458;20.914;2023-11-19T08:32:20;100767.77;;;0.88;87.54
59417;BME280;45222;52.458;20.914;2023-11-19T08:36:06;100776.88;;;0.86;87.45
59417;BME280;45222;52.458;20.914;2023-11-19T08:39:51;100774.09;;;0.79;87.04
59417;BME280;45222;52.458;20.914;2023-11-19T08:43:37;100771.81;;;0.72;86.60
59417;BME280;45222;52.458;20.914;2023-11-19T08:47:22;100775.14;;;0.73;86.75
59417;BME280;45222;52.458;20.914;2023-11-19T08:51:08;100772.33;;;0.83;86.78
59417;BME280;45222;52.458;20.914;2023-11-19T08:54:53;100760.91;;;0.98;86.82
59417;BME280;45222;52.458;20.914;2023-11-19T08:58:38;100755.08;;;1.15;86.76
59417;BME280;45222;52.458;20.914;2023-11-19T09:02:23;100744.88;;;1.26;86.28
59417;BME280;45222;52.458;20.914;2023-11-19T09:06:09;100734.86;;;1.31;85.91
59417;BME280;45222;52.458;20.914;2023-11-19T09:09:54;100728.20;;;1.32;85.60
59417;BME280;45222;52.458;20.914;2023-11-19T09:13:42;100716.43;;;1.37;85.25
59417;BME280;45222;52.458;20.914;2023-11-19T09:17:27;100707.30;;;1.40;85.04
59417;BME280;45222;52.458;20.914;2023-11-19T09:21:12;100699.73;;;1.48;85.49
59417;BME280;45222;52.458;20.914;2023-11-19T09:24:57;100696.89;;;1.56;85.44
59417;BME280;45222;52.458;20.914;2023-11-19T09:28:44;100690.22;;;1.56;84.75
59417;BME280;45222;52.458;20.914;2023-11-19T09:32:30;100691.09;;;1.56;84.90
59417;BME280;45222;52.458;20.914;2023-11-19T09:36:15;100695.48;;;1.54;84.81
59417;BME280;45222;52.458;20.914;2023-11-19T09:40:01;100695.64;;;1.57;84.74
59417;BME280;45222;52.458;20.914;2023-11-19T09:43:47;100692.79;;;1.65;84.96
59417;BME280;45222;52.458;20.914;2023-11-19T09:47:32;100684.52;;;1.70;84.69
59417;BME280;45222;52.458;20.914;2023-11-19T09:51:20;100680.30;;;1.71;84.49
59417;BME280;45222;52.458;20.914;2023-11-19T09:55:07;100674.15;;;1.74;84.16
59417;BME280;45222;52.458;20.914;2023-11-19T09:58:52;100664.80;;;1.80;83.87
59417;BME280;45222;52.458;20.914;2023-11-19T10:02:39;100654.07;;;1.85;83.28
59417;BME280;45222;52.458;20.914;2023-11-19T10:06:25;100642.10;;;1.90;83.17
59417;BME280;45222;52.458;20.914;2023-11-19T10:10:12;100634.33;;;1.97;83.37
59417;BME280;45222;52.458;20.914;2023-11-19T10:14:02;100624.79;;;2.04;83.48
59417;BME280;45222;52.458;20.914;2023-11-19T10:17:48;100623.14;;;2.10;83.38
59417;BME280;45222;52.458;20.914;2023-11-19T10:21:34;100615.46;;;2.07;83.10
59417;BME280;45222;52.458;20.914;2023-11-19T10:25:24;100604.98;;;2.02;82.79
59417;BME280;45222;52.458;20.914;2023-11-19T10:29:13;100595.43;;;1.92;82.68
59417;BME280;45222;52.458;20.914;2023-11-19T10:33:04;100587.66;;;1.78;82.87
59417;BME280;45222;52.458;20.914;2023-11-19T10:36:56;100577.43;;;1.65;83.20
59417;BME280;45222;52.458;20.914;2023-11-19T10:40:42;100568.55;;;1.60;83.64
59417;BME280;45222;52.458;20.914;2023-11-19T10:44:34;100570.11;;;1.60;83.95
59417;BME280;45222;52.458;20.914;2023-11-19T10:48:20;100565.74;;;1.58;83.96
59417;BME280;45222;52.458;20.914;2023-11-19T10:52:09;100555.80;;;1.54;84.18
59417;BME280;45222;52.458;20.914;2023-11-19T10:55:58;100542.38;;;1.45;83.82
59417;BME280;45222;52.458;20.914;2023-11-19T10:59:45;100531.77;;;1.32;83.90
59417;BME280;45222;52.458;20.914;2023-11-19T11:03:38;100517.98;;;1.27;84.17
59417;BME280;45222;52.458;20.914;2023-11-19T11:07:24;100517.29;;;1.25;84.66
59417;BME280;45222;52.458;20.914;2023-11-19T11:11:15;100513.42;;;1.27;85.00
59417;BME280;45222;52.458;20.914;2023-11-19T11:15:01;100506.38;;;1.31;84.97
59417;BME280;45222;52.458;20.914;2023-11-19T11:18:50;100495.91;;;1.25;84.69
59417;BME280;45222;52.458;20.914;2023-11-19T11:22:44;100487.56;;;1.17;84.58
59417;BME280;45222;52.458;20.914;2023-11-19T11:26:53;100484.11;;;1.12;84.74
59417;BME280;45222;52.458;20.914;2023-11-19T11:30:53;100480.09;;;1.11;85.08
59417;BME280;45222;52.458;20.914;2023-11-19T11:34:55;100475.92;;;1.05;85.18
59417;BME280;45222;52.458;20.914;2023-11-19T11:38:44;100468.96;;;1.01;85.11
59417;BME280;45222;52.458;20.914;2023-11-19T11:42:36;100461.12;;;0.95;84.97
59417;BME280;45222;52.458;20.914;2023-11-19T11:46:55;100456.10;;;0.88;85.25
59417;BME280;45222;52.458;20.914;2023-11-19T11:51:05;100444.70;;;0.92;85.52
59417;BME280;45222;52.458;20.914;2023-11-19T11:54:50;100436.25;;;0.97;85.72
59417;BME280;45222;52.458;20.914;2023-11-19T11:58:36;100423.98;;;0.98;86.04
59417;BME280;45222;52.458;20.914;2023-11-19T12:02:23;100412.25;;;0.97;85.83
59417;BME280;45222;52.458;20.914;2023-11-19T12:06:11;100407.91;;;0.92;85.75
59417;BME280;45222;52.458;20.914;2023-11-19T12:10:09;100400.23;;;0.89;85.83
59417;BME280;45222;52.458;20.914;2023-11-19T12:13:57;100390.30;;;0.82;86.04
59417;BME280;45222;52.458;20.914;2023-11-19T12:17:50;100384.55;;;0.80;86.54
59417;BME280;45222;52.458;20.914;2023-11-19T12:21:36;100379.19;;;0.73;86.64
59417;BME280;45222;52.458;20.914;2023-11-19T12:25:22;100375.98;;;0.78;86.71
59417;BME280;45222;52.458;20.914;2023-11-19T12:29:08;100375.45;;;0.80;86.30
59417;BME280;45222;52.458;20.914;2023-11-19T12:32:55;100372.27;;;0.84;86.57
59417;BME280;45222;52.458;20.914;2023-11-19T12:36:41;100371.58;;;0.83;86.50
59417;BME280;45222;52.458;20.914;2023-11-19T12:40:27;100368.59;;;0.84;86.78
59417;BME280;45222;52.458;20.914;2023-11-19T12:44:13;100357.70;;;0.87;86.94
59417;BME280;45222;52.458;20.914;2023-11-19T12:48:07;100346.13;;;0.91;86.99
59417;BME280;45222;52.458;20.914;2023-11-19T12:51:54;100347.50;;;0.93;86.58
59417;BME280;45222;52.458;20.914;2023-11-19T12:55:39;100340.86;;;0.91;86.57
59417;BME280;45222;52.458;20.914;2023-11-19T12:59:25;100339.28;;;0.91;86.81
59417;BME280;45222;52.458;20.914;2023-11-19T13:03:11;100337.35;;;0.92;87.04
59417;BME280;45222;52.458;20.914;2023-11-19T13:06:57;100333.33;;;0.92;86.78
59417;BME280;45222;52.458;20.914;2023-11-19T13:10:51;100331.59;;;0.90;87.18
59417;BME280;45222;52.458;20.914;2023-11-19T13:14:38;100325.64;;;0.91;86.78
59417;BME280;45222;52.458;20.914;2023-11-19T13:18:23;100318.79;;;0.92;86.71
59417;BME280;45222;52.458;20.914;2023-11-19T13:22:08;100309.14;;;0.95;86.62
59417;BME280;45222;52.458;20.914;2023-11-19T13:25:53;100305.66;;;0.92;86.62
59417;BME280;45222;52.458;20.914;2023-11-19T13:29:38;100291.70;;;0.86;86.89
59417;BME280;45222;52.458;20.914;2023-11-19T13:33:23;100281.61;;;0.80;87.00
59417;BME280;45222;52.458;20.914;2023-11-19T13:37:10;100271.55;;;0.71;87.13
59417;BME280;45222;52.458;20.914;2023-11-19T13:40:56;100259.36;;;0.65;87.20
59417;BME280;45222;52.458;20.914;2023-11-19T13:44:41;100248.20;;;0.60;87.61
59417;BME280;45222;52.458;20.914;2023-11-19T13:48:26;100239.12;;;0.58;87.55
59417;BME280;45222;52.458;20.914;2023-11-19T13:52:12;100231.10;;;0.55;87.85
59417;BME280;45222;52.458;20.914;2023-11-19T13:55:58;100226.28;;;0.46;88.35
59417;BME280;45222;52.458;20.914;2023-11-19T13:59:43;100220.55;;;0.42;88.19
59417;BME280;45222;52.458;20.914;2023-11-19T14:03:29;100214.64;;;0.38;88.04
59417;BME280;45222;52.458;20.914;2023-11-19T14:07:14;100215.36;;;0.36;88.30
59417;BME280;45222;52.458;20.914;2023-11-19T14:10:59;100211.92;;;0.30;88.55
59417;BME280;45222;52.458;20.914;2023-11-19T14:14:47;100209.83;;;0.29;88.72
59417;BME280;45222;52.458;20.914;2023-11-19T14:18:34;100205.13;;;0.26;88.84
59417;BME280;45222;52.458;20.914;2023-11-19T14:22:20;100196.55;;;0.27;88.61
59417;BME280;45222;52.458;20.914;2023-11-19T14:26:05;100184.71;;;0.21;88.72
59417;BME280;45222;52.458;20.914;2023-11-19T14:29:51;100181.45;;;0.15;88.52
59417;BME280;45222;52.458;20.914;2023-11-19T14:33:36;100180.61;;;0.11;88.64
59417;BME280;45222;52.458;20.914;2023-11-19T14:37:25;100179.55;;;0.10;88.84
59417;BME280;45222;52.458;20.914;2023-11-19T14:41:10;100176.60;;;0.09;89.09
59417;BME280;45222;52.458;20.914;2023-11-19T14:44:55;100176.27;;;0.07;89.32
59417;BME280;45222;52.458;20.914;2023-11-19T14:48:41;100177.15;;;0.05;89.36
59417;BME280;45222;52.458;20.914;2023-11-19T14:52:26;100172.05;;;0.07;89.46
59417;BME280;45222;52.458;20.914;2023-11-19T14:56:12;100170.83;;;0.08;89.86
59417;BME280;45222;52.458;20.914;2023-11-19T15:00:02;100165.41;;;0.08;90.08
59417;BME280;45222;52.458;20.914;2023-11-19T15:03:57;100161.73;;;0.09;90.19
59417;BME280;45222;52.458;20.914;2023-11-19T15:07:42;100157.59;;;0.03;89.94
59417;BME280;45222;52.458;20.914;2023-11-19T15:11:27;100158.67;;;0.00;89.85
59417;BME280;45222;52.458;20.914;2023-11-19T15:15:12;100159.71;;;0.00;89.90
59417;BME280;45222;52.458;20.914;2023-11-19T15:18:58;100153.75;;;0.02;89.96
59417;BME280;45222;52.458;20.914;2023-11-19T15:22:44;100153.73;;;0.04;90.23
59417;BME280;45222;52.458;20.914;2023-11-19T15:26:29;100150.02;;;0.08;90.53
59417;BME280;45222;52.458;20.914;2023-11-19T15:30:14;100152.30;;;0.08;90.68
59417;BME280;45222;52.458;20.914;2023-11-19T15:34:00;100159.10;;;0.10;90.48
59417;BME280;45222;52.458;20.914;2023-11-19T15:37:47;100154.54;;;0.11;90.52
59417;BME280;45222;52.458;20.914;2023-11-19T15:41:32;100150.34;;;0.11;90.51
59417;BME280;45222;52.458;20.914;2023-11-19T15:45:17;100152.93;;;0.16;90.59
59417;BME280;45222;52.458;20.914;2023-11-19T15:49:03;100148.90;;;0.17;90.67
59417;BME280;45222;52.458;20.914;2023-11-19T15:52:48;100145.76;;;0.17;90.62
59417;BME280;45222;52.458;20.914;2023-11-19T15:56:34;100146.30;;;0.13;90.34
59417;BME280;45222;52.458;20.914;2023-11-19T16:00:19;100142.81;;;0.12;90.40
59417;BME280;45222;52.458;20.914;2023-11-19T16:04:06;100143.17;;;0.12;90.50
59417;BME280;45222;52.458;20.914;2023-11-19T16:07:54;100136.89;;;0.11;90.61
59417;BME280;45222;52.458;20.914;2023-11-19T16:11:39;100137.47;;;0.05;90.81
59417;BME280;45222;52.458;20.914;2023-11-19T16:15:28;100134.00;;;0.02;90.80
59417;BME280;45222;52.458;20.914;2023-11-19T16:19:13;100133.67;;;-0.01;90.80
59417;BME280;45222;52.458;20.914;2023-11-19T16:22:58;100130.39;;;-0.05;90.99
59417;BME280;45222;52.458;20.914;2023-11-19T16:26:45;100132.11;;;-0.02;91.20
59417;BME280;45222;52.458;20.914;2023-11-19T16:30:32;100126.37;;;-0.06;91.14
59417;BME280;45222;52.458;20.914;2023-11-19T16:34:17;100122.89;;;-0.08;91.05
59417;BME280;45222;52.458;20.914;2023-11-19T16:38:03;100120.10;;;-0.08;91.14
59417;BME280;45222;52.458;20.914;2023-11-19T16:41:53;100116.62;;;-0.10;91.31
59417;BME280;45222;52.458;20.914;2023-11-19T16:45:39;100114.15;;;-0.08;91.56
59417;BME280;45222;52.458;20.914;2023-11-19T16:49:24;100111.55;;;-0.10;91.79
59417;BME280;45222;52.458;20.914;2023-11-19T16:53:09;100107.41;;;-0.15;91.56
59417;BME280;45222;52.458;20.914;2023-11-19T16:56:55;100103.23;;;-0.17;91.56
59417;BME280;45222;52.458;20.914;2023-11-19T17:00:40;100093.77;;;-0.16;91.49
59417;BME280;45222;52.458;20.914;2023-11-19T17:04:25;100088.70;;;-0.15;91.65
59417;BME280;45222;52.458;20.914;2023-11-19T17:08:11;100090.09;;;-0.13;91.98
59417;BME280;45222;52.458;20.914;2023-11-19T17:11:56;100095.14;;;-0.12;92.08
59417;BME280;45222;52.458;20.914;2023-11-19T17:15:42;100091.13;;;-0.13;91.94
59417;BME280;45222;52.458;20.914;2023-11-19T17:19:27;100084.14;;;-0.14;91.92
59417;BME280;45222;52.458;20.914;2023-11-19T17:23:12;100080.50;;;-0.17;92.12
59417;BME280;45222;52.458;20.914;2023-11-19T17:26:58;100077.83;;;-0.12;92.34
59417;BME280;45222;52.458;20.914;2023-11-19T17:30:43;100072.23;;;-0.10;92.30
59417;BME280;45222;52.458;20.914;2023-11-19T17:34:29;100066.48;;;-0.12;92.24
59417;BME280;45222;52.458;20.914;2023-11-19T17:38:14;100060.70;;;-0.11;92.26
59417;BME280;45222;52.458;20.914;2023-11-19T17:42:00;100055.59;;;-0.08;92.47
59417;BME280;45222;52.458;20.914;2023-11-19T17:45:47;100051.52;;;-0.03;92.56
59417;BME280;45222;52.458;20.914;2023-11-19T17:49:32;100053.63;;;-0.03;92.61
59417;BME280;45222;52.458;20.914;2023-11-19T17:53:18;100044.58;;;-0.07;92.49
59417;BME280;45222;52.458;20.914;2023-11-19T17:57:05;100040.88;;;-0.06;92.45
59417;BME280;45222;52.458;20.914;2023-11-19T18:00:50;100036.02;;;-0.08;92.58
59417;BME280;45222;52.458;20.914;2023-11-19T18:04:35;100034.45;;;-0.08;92.73
59417;BME280;45222;52.458;20.914;2023-11-19T18:08:22;100038.95;;;-0.03;92.75
59417;BME280;45222;52.458;20.914;2023-11-19T18:12:08;100036.81;;;-0.01;92.69
59417;BME280;45222;52.458;20.914;2023-11-19T18:15:53;100033.68;;;-0.02;92.67
59417;BME280;45222;52.458;20.914;2023-11-19T18:19:39;100026.00;;;-0.03;92.73
59417;BME280;45222;52.458;20.914;2023-11-19T18:23:25;100015.69;;;-0.02;92.67
59417;BME280;45222;52.458;20.914;2023-11-19T18:27:10;100010.59;;;0.01;92.84
59417;BME280;45222;52.458;20.914;2023-11-19T18:30:55;100003.62;;;-0.03;92.89
59417;BME280;45222;52.458;20.914;2023-11-19T18:34:41;100000.67;;;-0.04;92.68
59417;BME280;45222;52.458;20.914;2023-11-19T18:38:26;99995.59;;;-0.04;92.66
59417;BME280;45222;52.458;20.914;2023-11-19T18:42:13;99987.18;;;-0.02;92.69
59417;BME280;45222;52.458;20.914;2023-11-19T18:45:58;99988.92;;;-0.02;92.80
59417;BME280;45222;52.458;20.914;2023-11-19T18:49:44;99991.56;;;-0.02;92.85
59417;BME280;45222;52.458;20.914;2023-11-19T18:53:29;99989.27;;;-0.01;92.77
59417;BME280;45222;52.458;20.914;2023-11-19T18:57:15;99979.30;;;0.00;92.76
59417;BME280;45222;52.458;20.914;2023-11-19T19:01:00;99972.13;;;0.00;92.70
59417;BME280;45222;52.458;20.914;2023-11-19T19:04:45;99970.23;;;-0.02;92.70
59417;BME280;45222;52.458;20.914;2023-11-19T19:08:31;99963.71;;;0.02;92.95
59417;BME280;45222;52.458;20.914;2023-11-19T19:12:17;99958.30;;;0.02;93.03
59417;BME280;45222;52.458;20.914;2023-11-19T19:16:08;99954.31;;;-0.02;92.93
59417;BME280;45222;52.458;20.914;2023-11-19T19:19:53;99955.71;;;-0.01;92.78
59417;BME280;45222;52.458;20.914;2023-11-19T19:23:38;99953.25;;;0.01;92.75
59417;BME280;45222;52.458;20.914;2023-11-19T19:27:24;99948.48;;;0.04;92.93
59417;BME280;45222;52.458;20.914;2023-11-19T19:31:09;99946.20;;;0.05;92.99
59417;BME280;45222;52.458;20.914;2023-11-19T19:35:01;99941.65;;;0.05;92.75
59417;BME280;45222;52.458;20.914;2023-11-19T19:38:46;99938.31;;;0.07;92.71